Dillon, CO

10:34 PM MDT on September 15, 2014 (GMT -0600)
RAWS SODA CREEK CO US | Change Station
CLOSE
Current Station
Personal Weather Station
Location: Dillon, CO
Elevation: 9578 ft
Nearby Weather Stations

Elev 9578 ft 39.56 °N, 105.99 °W | Updated 38 minutes ago

Clear
Clear
48 °F
Feels Like 48 °F
N
1
Wind Variable Wind from ENE
Gusts 6.0 mph

Today
High -- | Low -- °F
--% Chance of Precip.
Yesterday
High -- | Low -- °F
Precip. -- in
6:45 AM 7:12 PM
Waning Gibbous, 49% visible
Pressure 30.12 in
Visibility 10.0 miles
Clouds Clear
Windchill 48 °F
Dew Point 32 °F
Humidity 54%
Rainfall 0.00 in
Snow Depth 0 in , 88 in , 0 in
UV 0 out of 12
Pollen 7.00 out of 12
Air Quality Not available.
Flu Activity Not available.
METAR KLXV 160353Z AUTO 00000KT 10SM CLR 08/00 A3054 RMK AO2 SLP197 T00780000

More Conditions Fewer Conditions

Pressure 30.12 in
Visibility 10.0 miles
Clouds Clear
Windchill 48 °F
Dew Point 32 °F
Humidity 54%
Rainfall 0.00 in
Snow Depth 0 in , 88 in , 0 in
UV 0 out of 12
Pollen 7.00 out of 12
Air Quality Not available.
Flu Activity Not available.
METAR KLXV 160353Z AUTO 00000KT 10SM CLR 08/00 A3054 RMK AO2 SLP197 T00780000

More Conditions Fewer Conditions

10-Day Weather Forecast

Almanac

Astronomy

Sep. 15, 2014 Rise Set
Actual Time 6:45 AM MDT 7:12 PM MDT
Civil Twilight 6:18 AM MDT 7:39 PM MDT
Nautical Twilight 5:46 AM MDT 8:10 PM MDT
Astronomical Twilight 5:13 AM MDT 8:43 PM MDT
Moon 11:59 PM MDT (9/15) 1:46 PM MDT (9/15)
Length of Visible Light 13h 21m
Length of Day
12h 27m
Tomorrow will be 2m 33s shorter.
Waning Gibbous, 49% of the Moon is Illuminated
Sep 16
Waning Gibbous
Sep 24
New
Oct 1
First Quarter
Oct 8
Full
Oct 15
Last Quarter

Yesterday's Extremes

State Highs State Lows

Community

WunderPhotos

Upload Photos

1,753,702 photos uploaded!

Nearby

Snow Depth

Station Depth Elevation
North Lost Trail 0 in 9200 ft
Vail Mountain 88 in 10300 ft
Brumley 0 in 10600 ft
Porphyry Creek 0 in 10760 ft
Berthoud Summit 0 in 11300 ft

Earthquake Activity

City Distance Mag. Time & Date
No recent earthquake activity has been reported nearby.
Minimum magnitude displayed is 2.5.

Coastal Water Temperatures

Place Temperature
No Stations Reporting

Nearby Weather Stations